sensor_id;sensor_type;location;lat;lon;timestamp;P1;durP1;ratioP1;P2;durP2;ratioP2
19560;SDS011;9927;47.792;10.616;2023-02-18T04:00:59;7.35;;;6.75;;
19560;SDS011;9927;47.792;10.616;2023-02-18T04:03:27;7.57;;;6.90;;
19560;SDS011;9927;47.792;10.616;2023-02-18T04:05:54;7.57;;;6.97;;
19560;SDS011;9927;47.792;10.616;2023-02-18T04:08:21;7.05;;;6.50;;
19560;SDS011;9927;47.792;10.616;2023-02-18T04:10:49;7.57;;;6.97;;
19560;SDS011;9927;47.792;10.616;2023-02-18T04:13:16;7.80;;;7.10;;
19560;SDS011;9927;47.792;10.616;2023-02-18T04:15:44;8.35;;;6.88;;
19560;SDS011;9927;47.792;10.616;2023-02-18T04:18:11;6.90;;;6.40;;
19560;SDS011;9927;47.792;10.616;2023-02-18T04:20:38;9.65;;;6.85;;
19560;SDS011;9927;47.792;10.616;2023-02-18T04:23:06;7.50;;;6.82;;
19560;SDS011;9927;47.792;10.616;2023-02-18T04:25:33;8.00;;;7.30;;
19560;SDS011;9927;47.792;10.616;2023-02-18T04:28:01;7.15;;;6.55;;
19560;SDS011;9927;47.792;10.616;2023-02-18T04:30:28;8.23;;;7.40;;
19560;SDS011;9927;47.792;10.616;2023-02-18T04:32:55;7.25;;;6.60;;
19560;SDS011;9927;47.792;10.616;2023-02-18T04:35:22;8.02;;;7.32;;
19560;SDS011;9927;47.792;10.616;2023-02-18T04:37:50;7.20;;;6.60;;
19560;SDS011;9927;47.792;10.616;2023-02-18T04:40:17;7.47;;;6.88;;
19560;SDS011;9927;47.792;10.616;2023-02-18T04:42:44;6.63;;;6.10;;
19560;SDS011;9927;47.792;10.616;2023-02-18T04:45:11;7.97;;;7.25;;
19560;SDS011;9927;47.792;10.616;2023-02-18T04:47:38;7.38;;;6.88;;
19560;SDS011;9927;47.792;10.616;2023-02-18T04:50:06;7.35;;;6.47;;
19560;SDS011;9927;47.792;10.616;2023-02-18T04:52:34;7.00;;;6.50;;
19560;SDS011;9927;47.792;10.616;2023-02-18T04:55:01;6.57;;;5.97;;
19560;SDS011;9927;47.792;10.616;2023-02-18T04:57:28;6.43;;;5.82;;
19560;SDS011;9927;47.792;10.616;2023-02-18T04:59:55;6.80;;;6.20;;
19560;SDS011;9927;47.792;10.616;2023-02-18T05:02:22;6.40;;;6.00;;
19560;SDS011;9927;47.792;10.616;2023-02-18T05:04:50;7.10;;;6.47;;
19560;SDS011;9927;47.792;10.616;2023-02-18T05:07:17;8.43;;;6.68;;
19560;SDS011;9927;47.792;10.616;2023-02-18T05:09:44;6.75;;;6.25;;
19560;SDS011;9927;47.792;10.616;2023-02-18T05:12:11;6.70;;;6.20;;
19560;SDS011;9927;47.792;10.616;2023-02-18T05:14:39;6.60;;;6.10;;
19560;SDS011;9927;47.792;10.616;2023-02-18T05:17:06;7.10;;;6.50;;
19560;SDS011;9927;47.792;10.616;2023-02-18T05:19:33;6.25;;;5.85;;
19560;SDS011;9927;47.792;10.616;2023-02-18T05:22:00;6.35;;;5.90;;
19560;SDS011;9927;47.792;10.616;2023-02-18T05:24:27;7.10;;;6.50;;
19560;SDS011;9927;47.792;10.616;2023-02-18T05:26:55;8.50;;;7.60;;
19560;SDS011;9927;47.792;10.616;2023-02-18T05:29:22;7.55;;;6.95;;
19560;SDS011;9927;47.792;10.616;2023-02-18T05:31:49;7.80;;;7.10;;
19560;SDS011;9927;47.792;10.616;2023-02-18T05:34:17;7.47;;;6.80;;
19560;SDS011;9927;47.792;10.616;2023-02-18T05:36:44;7.97;;;7.32;;
19560;SDS011;9927;47.792;10.616;2023-02-18T05:39:12;9.27;;;7.80;;
19560;SDS011;9927;47.792;10.616;2023-02-18T05:41:39;7.95;;;7.25;;
19560;SDS011;9927;47.792;10.616;2023-02-18T05:44:06;9.10;;;8.40;;
19560;SDS011;9927;47.792;10.616;2023-02-18T05:46:52;9.70;;;8.80;;
19560;SDS011;9927;47.792;10.616;2023-02-18T05:49:19;8.90;;;8.15;;
19560;SDS011;9927;47.792;10.616;2023-02-18T05:51:47;9.60;;;8.80;;
19560;SDS011;9927;47.792;10.616;2023-02-18T05:54:14;8.93;;;8.15;;
19560;SDS011;9927;47.792;10.616;2023-02-18T05:56:41;8.90;;;8.10;;
19560;SDS011;9927;47.792;10.616;2023-02-18T05:59:08;9.40;;;8.55;;
19560;SDS011;9927;47.792;10.616;2023-02-18T06:01:36;9.13;;;8.32;;
19560;SDS011;9927;47.792;10.616;2023-02-18T06:04:03;9.60;;;8.80;;
19560;SDS011;9927;47.792;10.616;2023-02-18T06:06:30;9.45;;;8.65;;
19560;SDS011;9927;47.792;10.616;2023-02-18T06:08:58;9.05;;;8.25;;
19560;SDS011;9927;47.792;10.616;2023-02-18T06:11:25;9.35;;;8.55;;
19560;SDS011;9927;47.792;10.616;2023-02-18T06:13:52;9.57;;;8.60;;
19560;SDS011;9927;47.792;10.616;2023-02-18T06:16:19;10.23;;;9.07;;
19560;SDS011;9927;47.792;10.616;2023-02-18T06:18:46;8.85;;;8.05;;
19560;SDS011;9927;47.792;10.616;2023-02-18T06:21:14;9.00;;;8.20;;
19560;SDS011;9927;47.792;10.616;2023-02-18T06:23:41;9.95;;;8.95;;
19560;SDS011;9927;47.792;10.616;2023-02-18T06:26:08;8.82;;;8.13;;
19560;SDS011;9927;47.792;10.616;2023-02-18T06:28:36;8.63;;;7.82;;
19560;SDS011;9927;47.792;10.616;2023-02-18T06:31:03;8.30;;;7.60;;
19560;SDS011;9927;47.792;10.616;2023-02-18T06:33:30;8.30;;;7.60;;
19560;SDS011;9927;47.792;10.616;2023-02-18T06:35:59;8.50;;;7.75;;
19560;SDS011;9927;47.792;10.616;2023-02-18T06:38:28;8.37;;;7.67;;
19560;SDS011;9927;47.792;10.616;2023-02-18T06:40:56;8.70;;;7.88;;
19560;SDS011;9927;47.792;10.616;2023-02-18T06:43:23;9.30;;;8.40;;
19560;SDS011;9927;47.792;10.616;2023-02-18T06:45:51;9.23;;;8.20;;
19560;SDS011;9927;47.792;10.616;2023-02-18T06:48:18;8.43;;;7.70;;
19560;SDS011;9927;47.792;10.616;2023-02-18T06:50:45;8.95;;;8.05;;
19560;SDS011;9927;47.792;10.616;2023-02-18T06:53:13;9.20;;;7.75;;
19560;SDS011;9927;47.792;10.616;2023-02-18T06:55:43;8.13;;;7.43;;
19560;SDS011;9927;47.792;10.616;2023-02-18T06:58:11;8.70;;;7.50;;
19560;SDS011;9927;47.792;10.616;2023-02-18T07:00:40;10.18;;;7.85;;
19560;SDS011;9927;47.792;10.616;2023-02-18T07:03:07;6.68;;;6.18;;
19560;SDS011;9927;47.792;10.616;2023-02-18T07:05:38;6.38;;;5.88;;
19560;SDS011;9927;47.792;10.616;2023-02-18T07:08:05;6.70;;;6.20;;
19560;SDS011;9927;47.792;10.616;2023-02-18T07:10:32;11.07;;;6.20;;
19560;SDS011;9927;47.792;10.616;2023-02-18T07:12:59;6.53;;;5.97;;
19560;SDS011;9927;47.792;10.616;2023-02-18T07:15:27;6.45;;;5.95;;
19560;SDS011;9927;47.792;10.616;2023-02-18T07:17:54;5.28;;;4.95;;
19560;SDS011;9927;47.792;10.616;2023-02-18T07:20:22;5.90;;;5.40;;
19560;SDS011;9927;47.792;10.616;2023-02-18T07:22:50;5.45;;;4.85;;
19560;SDS011;9927;47.792;10.616;2023-02-18T07:25:18;5.13;;;4.82;;
19560;SDS011;9927;47.792;10.616;2023-02-18T07:27:48;6.03;;;4.70;;
19560;SDS011;9927;47.792;10.616;2023-02-18T07:30:17;5.07;;;4.57;;
19560;SDS011;9927;47.792;10.616;2023-02-18T07:32:45;4.80;;;4.40;;
19560;SDS011;9927;47.792;10.616;2023-02-18T07:35:13;4.38;;;4.07;;
19560;SDS011;9927;47.792;10.616;2023-02-18T07:37:45;4.35;;;4.13;;
19560;SDS011;9927;47.792;10.616;2023-02-18T07:40:15;4.65;;;4.35;;
19560;SDS011;9927;47.792;10.616;2023-02-18T07:42:44;5.22;;;4.63;;
19560;SDS011;9927;47.792;10.616;2023-02-18T07:45:12;4.90;;;4.50;;
19560;SDS011;9927;47.792;10.616;2023-02-18T07:47:40;5.03;;;4.63;;
19560;SDS011;9927;47.792;10.616;2023-02-18T07:50:08;4.55;;;4.15;;
19560;SDS011;9927;47.792;10.616;2023-02-18T07:52:36;6.70;;;4.97;;
19560;SDS011;9927;47.792;10.616;2023-02-18T07:55:03;4.90;;;4.20;;
19560;SDS011;9927;47.792;10.616;2023-02-18T07:57:30;5.45;;;4.43;;
19560;SDS011;9927;47.792;10.616;2023-02-18T07:59:58;4.45;;;4.07;;
19560;SDS011;9927;47.792;10.616;2023-02-18T08:02:25;4.80;;;4.40;;
19560;SDS011;9927;47.792;10.616;2023-02-18T08:04:52;4.28;;;4.07;;
19560;SDS011;9927;47.792;10.616;2023-02-18T08:07:20;4.55;;;4.05;;
19560;SDS011;9927;47.792;10.616;2023-02-18T08:09:48;5.15;;;4.75;;
19560;SDS011;9927;47.792;10.616;2023-02-18T08:12:16;4.20;;;4.00;;
19560;SDS011;9927;47.792;10.616;2023-02-18T08:14:43;4.40;;;4.20;;
19560;SDS011;9927;47.792;10.616;2023-02-18T08:17:11;3.97;;;3.78;;
19560;SDS011;9927;47.792;10.616;2023-02-18T08:19:38;4.68;;;4.30;;
19560;SDS011;9927;47.792;10.616;2023-02-18T08:22:05;4.05;;;3.85;;
19560;SDS011;9927;47.792;10.616;2023-02-18T08:24:32;4.22;;;3.88;;
19560;SDS011;9927;47.792;10.616;2023-02-18T08:26:59;4.10;;;3.90;;
19560;SDS011;9927;47.792;10.616;2023-02-18T08:29:27;4.00;;;3.80;;
19560;SDS011;9927;47.792;10.616;2023-02-18T08:31:55;4.20;;;4.00;;
19560;SDS011;9927;47.792;10.616;2023-02-18T08:34:25;3.70;;;3.50;;
19560;SDS011;9927;47.792;10.616;2023-02-18T08:36:52;3.72;;;3.60;;
19560;SDS011;9927;47.792;10.616;2023-02-18T08:39:20;4.60;;;4.20;;
19560;SDS011;9927;47.792;10.616;2023-02-18T08:41:47;4.03;;;3.72;;
19560;SDS011;9927;47.792;10.616;2023-02-18T08:44:14;4.05;;;3.85;;
19560;SDS011;9927;47.792;10.616;2023-02-18T08:46:41;4.10;;;3.90;;
19560;SDS011;9927;47.792;10.616;2023-02-18T08:49:08;4.07;;;3.78;;
19560;SDS011;9927;47.792;10.616;2023-02-18T08:51:36;3.90;;;3.60;;
19560;SDS011;9927;47.792;10.616;2023-02-18T08:54:03;3.67;;;3.58;;
19560;SDS011;9927;47.792;10.616;2023-02-18T08:56:30;3.80;;;3.60;;
19560;SDS011;9927;47.792;10.616;2023-02-18T08:58:58;3.25;;;3.10;;
19560;SDS011;9927;47.792;10.616;2023-02-18T09:01:25;3.35;;;3.15;;
19560;SDS011;9927;47.792;10.616;2023-02-18T09:03:53;3.67;;;3.50;;
19560;SDS011;9927;47.792;10.616;2023-02-18T09:06:20;3.45;;;3.25;;
19560;SDS011;9927;47.792;10.616;2023-02-18T09:08:47;5.90;;;3.65;;
19560;SDS011;9927;47.792;10.616;2023-02-18T09:11:15;3.20;;;3.03;;
19560;SDS011;9927;47.792;10.616;2023-02-18T09:13:43;3.80;;;3.50;;
19560;SDS011;9927;47.792;10.616;2023-02-18T09:16:11;4.00;;;3.70;;
19560;SDS011;9927;47.792;10.616;2023-02-18T09:18:40;3.70;;;3.50;;
19560;SDS011;9927;47.792;10.616;2023-02-18T09:21:07;3.60;;;3.38;;
19560;SDS011;9927;47.792;10.616;2023-02-18T09:23:37;3.83;;;3.53;;
19560;SDS011;9927;47.792;10.616;2023-02-18T09:26:05;3.45;;;3.25;;
19560;SDS011;9927;47.792;10.616;2023-02-18T09:28:34;3.20;;;3.10;;
19560;SDS011;9927;47.792;10.616;2023-02-18T09:31:06;3.78;;;3.60;;
19560;SDS011;9927;47.792;10.616;2023-02-18T09:33:36;4.35;;;3.35;;
19560;SDS011;9927;47.792;10.616;2023-02-18T09:36:05;3.45;;;3.28;;
19560;SDS011;9927;47.792;10.616;2023-02-18T09:38:33;3.40;;;3.20;;
19560;SDS011;9927;47.792;10.616;2023-02-18T09:41:02;3.40;;;3.30;;
19560;SDS011;9927;47.792;10.616;2023-02-18T09:43:33;3.20;;;3.10;;
19560;SDS011;9927;47.792;10.616;2023-02-18T09:46:01;3.15;;;3.05;;
19560;SDS011;9927;47.792;10.616;2023-02-18T09:48:31;3.28;;;3.15;;
19560;SDS011;9927;47.792;10.616;2023-02-18T09:50:59;3.33;;;3.10;;
19560;SDS011;9927;47.792;10.616;2023-02-18T09:53:27;3.20;;;2.90;;
19560;SDS011;9927;47.792;10.616;2023-02-18T09:55:55;3.00;;;2.90;;
19560;SDS011;9927;47.792;10.616;2023-02-18T09:58:27;2.97;;;2.80;;
19560;SDS011;9927;47.792;10.616;2023-02-18T10:04:21;3.30;;;3.20;;
19560;SDS011;9927;47.792;10.616;2023-02-18T10:06:57;3.13;;;2.92;;
19560;SDS011;9927;47.792;10.616;2023-02-18T10:09:32;2.85;;;2.75;;
19560;SDS011;9927;47.792;10.616;2023-02-18T10:12:14;2.88;;;2.78;;
19560;SDS011;9927;47.792;10.616;2023-02-18T10:14:48;3.13;;;2.92;;
19560;SDS011;9927;47.792;10.616;2023-02-18T10:17:22;3.10;;;3.00;;
19560;SDS011;9927;47.792;10.616;2023-02-18T10:19:52;3.30;;;3.10;;
19560;SDS011;9927;47.792;10.616;2023-02-18T10:22:21;3.15;;;2.85;;
19560;SDS011;9927;47.792;10.616;2023-02-18T10:24:57;3.10;;;3.00;;
19560;SDS011;9927;47.792;10.616;2023-02-18T10:32:42;2.90;;;2.80;;
19560;SDS011;9927;47.792;10.616;2023-02-18T10:35:33;3.38;;;3.17;;
19560;SDS011;9927;47.792;10.616;2023-02-18T10:44:01;3.00;;;2.80;;
19560;SDS011;9927;47.792;10.616;2023-02-18T10:52:19;3.00;;;2.90;;
19560;SDS011;9927;47.792;10.616;2023-02-18T10:55:08;3.03;;;2.90;;
19560;SDS011;9927;47.792;10.616;2023-02-18T10:57:48;3.85;;;3.55;;
19560;SDS011;9927;47.792;10.616;2023-02-18T11:00:24;3.20;;;2.90;;
19560;SDS011;9927;47.792;10.616;2023-02-18T11:03:03;3.03;;;2.92;;
19560;SDS011;9927;47.792;10.616;2023-02-18T11:05:35;3.30;;;3.10;;
19560;SDS011;9927;47.792;10.616;2023-02-18T11:08:05;3.08;;;2.97;;
19560;SDS011;9927;47.792;10.616;2023-02-18T11:10:38;3.30;;;3.00;;
19560;SDS011;9927;47.792;10.616;2023-02-18T11:13:08;4.38;;;3.08;;
19560;SDS011;9927;47.792;10.616;2023-02-18T11:15:38;3.10;;;3.00;;
19560;SDS011;9927;47.792;10.616;2023-02-18T11:21:18;3.03;;;2.83;;
19560;SDS011;9927;47.792;10.616;2023-02-18T11:23:49;2.80;;;2.70;;
19560;SDS011;9927;47.792;10.616;2023-02-18T11:26:26;3.15;;;2.95;;
19560;SDS011;9927;47.792;10.616;2023-02-18T11:28:57;4.35;;;3.25;;
19560;SDS011;9927;47.792;10.616;2023-02-18T11:31:34;3.10;;;2.90;;
19560;SDS011;9927;47.792;10.616;2023-02-18T11:34:12;3.08;;;2.88;;
19560;SDS011;9927;47.792;10.616;2023-02-18T11:36:49;3.20;;;3.10;;
19560;SDS011;9927;47.792;10.616;2023-02-18T11:41:53;3.03;;;2.90;;
19560;SDS011;9927;47.792;10.616;2023-02-18T11:44:30;3.13;;;3.00;;
19560;SDS011;9927;47.792;10.616;2023-02-18T11:49:41;2.90;;;2.60;;
19560;SDS011;9927;47.792;10.616;2023-02-18T11:52:17;3.17;;;2.97;;
19560;SDS011;9927;47.792;10.616;2023-02-18T11:57:34;2.90;;;2.70;;
19560;SDS011;9927;47.792;10.616;2023-02-18T12:00:22;2.80;;;2.70;;
19560;SDS011;9927;47.792;10.616;2023-02-18T12:02:50;2.72;;;2.55;;
19560;SDS011;9927;47.792;10.616;2023-02-18T12:05:24;2.65;;;2.55;;
19560;SDS011;9927;47.792;10.616;2023-02-18T12:07:57;2.50;;;2.40;;
19560;SDS011;9927;47.792;10.616;2023-02-18T12:10:34;3.22;;;2.60;;
19560;SDS011;9927;47.792;10.616;2023-02-18T12:24:13;2.95;;;2.85;;
19560;SDS011;9927;47.792;10.616;2023-02-18T12:26:54;2.90;;;2.80;;
19560;SDS011;9927;47.792;10.616;2023-02-18T12:38:05;2.83;;;2.72;;
19560;SDS011;9927;47.792;10.616;2023-02-18T12:40:50;2.47;;;2.38;;
19560;SDS011;9927;47.792;10.616;2023-02-18T12:46:15;2.90;;;2.80;;
19560;SDS011;9927;47.792;10.616;2023-02-18T12:48:56;2.85;;;2.75;;
19560;SDS011;9927;47.792;10.616;2023-02-18T12:51:48;2.67;;;2.58;;
19560;SDS011;9927;47.792;10.616;2023-02-18T12:54:44;2.80;;;2.70;;
19560;SDS011;9927;47.792;10.616;2023-02-18T13:06:37;2.90;;;2.70;;
19560;SDS011;9927;47.792;10.616;2023-02-18T13:09:12;2.63;;;2.53;;
19560;SDS011;9927;47.792;10.616;2023-02-18T13:17:44;2.67;;;2.50;;
19560;SDS011;9927;47.792;10.616;2023-02-18T13:20:16;2.53;;;2.42;;
19560;SDS011;9927;47.792;10.616;2023-02-18T13:22:58;2.50;;;2.40;;
19560;SDS011;9927;47.792;10.616;2023-02-18T13:25:27;2.80;;;2.70;;
19560;SDS011;9927;47.792;10.616;2023-02-18T13:39:20;2.13;;;2.13;;
19560;SDS011;9927;47.792;10.616;2023-02-18T13:41:49;2.50;;;2.40;;
19560;SDS011;9927;47.792;10.616;2023-02-18T13:46:48;2.88;;;2.67;;
19560;SDS011;9927;47.792;10.616;2023-02-18T13:49:23;3.05;;;2.90;;
19560;SDS011;9927;47.792;10.616;2023-02-18T13:51:57;3.05;;;2.83;;
19560;SDS011;9927;47.792;10.616;2023-02-18T13:57:19;2.92;;;2.80;;
19560;SDS011;9927;47.792;10.616;2023-02-18T13:59:54;2.45;;;2.35;;
19560;SDS011;9927;47.792;10.616;2023-02-18T14:25:56;2.60;;;2.60;;
19560;SDS011;9927;47.792;10.616;2023-02-18T14:31:05;2.88;;;2.72;;
19560;SDS011;9927;47.792;10.616;2023-02-18T14:33:40;2.83;;;2.72;;
19560;SDS011;9927;47.792;10.616;2023-02-18T14:36:29;2.72;;;2.63;;
19560;SDS011;9927;47.792;10.616;2023-02-18T14:50:29;3.00;;;2.90;;
19560;SDS011;9927;47.792;10.616;2023-02-18T14:53:01;2.83;;;2.72;;
19560;SDS011;9927;47.792;10.616;2023-02-18T14:55:32;3.10;;;2.90;;
19560;SDS011;9927;47.792;10.616;2023-02-18T15:00:38;3.40;;;3.17;;
19560;SDS011;9927;47.792;10.616;2023-02-18T15:03:11;3.50;;;3.22;;
19560;SDS011;9927;47.792;10.616;2023-02-18T15:05:41;3.58;;;3.30;;
19560;SDS011;9927;47.792;10.616;2023-02-18T15:08:16;3.17;;;3.08;;
19560;SDS011;9927;47.792;10.616;2023-02-18T15:10:58;3.92;;;3.55;;
19560;SDS011;9927;47.792;10.616;2023-02-18T15:15:58;3.58;;;3.33;;
19560;SDS011;9927;47.792;10.616;2023-02-18T15:18:35;3.40;;;3.30;;
19560;SDS011;9927;47.792;10.616;2023-02-18T15:21:18;4.05;;;3.75;;
19560;SDS011;9927;47.792;10.616;2023-02-18T15:23:49;3.30;;;3.20;;
19560;SDS011;9927;47.792;10.616;2023-02-18T15:26:17;3.92;;;3.63;;
19560;SDS011;9927;47.792;10.616;2023-02-18T15:29:02;3.80;;;3.50;;
19560;SDS011;9927;47.792;10.616;2023-02-18T15:31:35;3.60;;;3.40;;
19560;SDS011;9927;47.792;10.616;2023-02-18T15:34:16;3.70;;;3.50;;
19560;SDS011;9927;47.792;10.616;2023-02-18T15:36:51;3.70;;;3.50;;
19560;SDS011;9927;47.792;10.616;2023-02-18T15:39:19;4.30;;;4.10;;
19560;SDS011;9927;47.792;10.616;2023-02-18T15:41:46;4.38;;;4.07;;
19560;SDS011;9927;47.792;10.616;2023-02-18T15:44:22;4.05;;;3.75;;
19560;SDS011;9927;47.792;10.616;2023-02-18T15:46:55;3.85;;;3.60;;
19560;SDS011;9927;47.792;10.616;2023-02-18T15:49:30;4.03;;;3.83;;
19560;SDS011;9927;47.792;10.616;2023-02-18T15:51:58;4.00;;;3.80;;
19560;SDS011;9927;47.792;10.616;2023-02-18T15:54:27;4.03;;;3.80;;
19560;SDS011;9927;47.792;10.616;2023-02-18T15:56:55;4.10;;;3.90;;
19560;SDS011;9927;47.792;10.616;2023-02-18T15:59:29;4.53;;;4.25;;
19560;SDS011;9927;47.792;10.616;2023-02-18T16:04:50;4.30;;;4.00;;
19560;SDS011;9927;47.792;10.616;2023-02-18T16:10:06;3.92;;;3.70;;
19560;SDS011;9927;47.792;10.616;2023-02-18T16:12:40;4.43;;;4.13;;
19560;SDS011;9927;47.792;10.616;2023-02-18T16:15:13;4.32;;;4.13;;
19560;SDS011;9927;47.792;10.616;2023-02-18T16:17:48;4.53;;;4.22;;
19560;SDS011;9927;47.792;10.616;2023-02-18T16:22:51;4.05;;;3.85;;
19560;SDS011;9927;47.792;10.616;2023-02-18T16:30:30;4.40;;;4.20;;
19560;SDS011;9927;47.792;10.616;2023-02-18T16:33:01;4.57;;;4.28;;
19560;SDS011;9927;47.792;10.616;2023-02-18T16:35:29;4.60;;;4.30;;
19560;SDS011;9927;47.792;10.616;2023-02-18T16:38:15;4.53;;;4.22;;
19560;SDS011;9927;47.792;10.616;2023-02-18T16:40:48;4.28;;;3.97;;
19560;SDS011;9927;47.792;10.616;2023-02-18T16:43:17;4.80;;;4.50;;
19560;SDS011;9927;47.792;10.616;2023-02-18T16:45:53;4.63;;;4.32;;
19560;SDS011;9927;47.792;10.616;2023-02-18T16:48:30;5.13;;;4.72;;
19560;SDS011;9927;47.792;10.616;2023-02-18T16:51:37;4.85;;;4.45;;
19560;SDS011;9927;47.792;10.616;2023-02-18T16:54:04;5.53;;;5.10;;
19560;SDS011;9927;47.792;10.616;2023-02-18T16:56:32;4.90;;;4.60;;
19560;SDS011;9927;47.792;10.616;2023-02-18T16:59:01;5.32;;;5.00;;
19560;SDS011;9927;47.792;10.616;2023-02-18T17:01:29;5.13;;;4.82;;
19560;SDS011;9927;47.792;10.616;2023-02-18T17:04:03;4.68;;;4.47;;
19560;SDS011;9927;47.792;10.616;2023-02-18T17:06:34;5.88;;;5.38;;
19560;SDS011;9927;47.792;10.616;2023-02-18T17:09:01;5.03;;;4.72;;
19560;SDS011;9927;47.792;10.616;2023-02-18T17:11:36;5.50;;;5.10;;
19560;SDS011;9927;47.792;10.616;2023-02-18T17:14:03;5.30;;;4.90;;
19560;SDS011;9927;47.792;10.616;2023-02-18T17:16:30;5.20;;;4.90;;
19560;SDS011;9927;47.792;10.616;2023-02-18T17:18:58;5.18;;;4.85;;
19560;SDS011;9927;47.792;10.616;2023-02-18T17:21:25;5.93;;;5.53;;
19560;SDS011;9927;47.792;10.616;2023-02-18T17:23:52;4.88;;;4.57;;
19560;SDS011;9927;47.792;10.616;2023-02-18T17:26:21;5.82;;;5.32;;
19560;SDS011;9927;47.792;10.616;2023-02-18T17:28:50;5.60;;;5.10;;
19560;SDS011;9927;47.792;10.616;2023-02-18T17:31:20;5.28;;;4.88;;
19560;SDS011;9927;47.792;10.616;2023-02-18T17:33:52;5.28;;;4.80;;
19560;SDS011;9927;47.792;10.616;2023-02-18T17:36:21;5.75;;;5.32;;
19560;SDS011;9927;47.792;10.616;2023-02-18T17:38:48;5.00;;;4.60;;
19560;SDS011;9927;47.792;10.616;2023-02-18T17:41:16;5.60;;;5.20;;
19560;SDS011;9927;47.792;10.616;2023-02-18T17:43:43;5.15;;;4.80;;
19560;SDS011;9927;47.792;10.616;2023-02-18T17:46:11;5.95;;;5.55;;
19560;SDS011;9927;47.792;10.616;2023-02-18T17:48:40;5.57;;;5.07;;
19560;SDS011;9927;47.792;10.616;2023-02-18T17:53:52;4.72;;;4.47;;
19560;SDS011;9927;47.792;10.616;2023-02-18T17:56:19;5.32;;;4.93;;
19560;SDS011;9927;47.792;10.616;2023-02-18T17:58:47;5.38;;;4.88;;
19560;SDS011;9927;47.792;10.616;2023-02-18T18:01:15;5.10;;;4.80;;
19560;SDS011;9927;47.792;10.616;2023-02-18T18:03:44;5.20;;;4.80;;
19560;SDS011;9927;47.792;10.616;2023-02-18T18:06:18;5.13;;;4.80;;
19560;SDS011;9927;47.792;10.616;2023-02-18T18:08:46;4.70;;;4.40;;
19560;SDS011;9927;47.792;10.616;2023-02-18T18:11:23;4.72;;;4.47;;
19560;SDS011;9927;47.792;10.616;2023-02-18T18:13:51;4.30;;;4.10;;
19560;SDS011;9927;47.792;10.616;2023-02-18T18:16:19;4.40;;;4.18;;
19560;SDS011;9927;47.792;10.616;2023-02-18T18:18:47;3.95;;;3.75;;
19560;SDS011;9927;47.792;10.616;2023-02-18T18:21:33;4.07;;;3.80;;
19560;SDS011;9927;47.792;10.616;2023-02-18T18:24:01;3.90;;;3.70;;
19560;SDS011;9927;47.792;10.616;2023-02-18T18:26:28;3.80;;;3.70;;
19560;SDS011;9927;47.792;10.616;2023-02-18T18:28:56;5.88;;;4.15;;
19560;SDS011;9927;47.792;10.616;2023-02-18T18:31:23;3.60;;;3.40;;
19560;SDS011;9927;47.792;10.616;2023-02-18T18:33:51;4.43;;;4.10;;
19560;SDS011;9927;47.792;10.616;2023-02-18T18:36:19;4.03;;;3.80;;
19560;SDS011;9927;47.792;10.616;2023-02-18T18:38:49;3.70;;;3.60;;
19560;SDS011;9927;47.792;10.616;2023-02-18T18:41:18;3.72;;;3.60;;
19560;SDS011;9927;47.792;10.616;2023-02-18T18:43:47;3.83;;;3.50;;
19560;SDS011;9927;47.792;10.616;2023-02-18T18:46:15;4.13;;;3.88;;
19560;SDS011;9927;47.792;10.616;2023-02-18T18:48:46;3.97;;;3.78;;
19560;SDS011;9927;47.792;10.616;2023-02-18T18:51:14;3.67;;;3.47;;
19560;SDS011;9927;47.792;10.616;2023-02-18T18:53:47;4.00;;;3.80;;
19560;SDS011;9927;47.792;10.616;2023-02-18T18:56:14;3.70;;;3.50;;
19560;SDS011;9927;47.792;10.616;2023-02-18T18:58:41;3.65;;;3.40;;
19560;SDS011;9927;47.792;10.616;2023-02-18T19:01:18;3.97;;;3.78;;
19560;SDS011;9927;47.792;10.616;2023-02-18T19:03:53;3.53;;;3.38;;
19560;SDS011;9927;47.792;10.616;2023-02-18T19:06:20;3.45;;;3.35;;
19560;SDS011;9927;47.792;10.616;2023-02-18T19:08:47;3.92;;;3.72;;
19560;SDS011;9927;47.792;10.616;2023-02-18T19:11:15;3.80;;;3.60;;
19560;SDS011;9927;47.792;10.616;2023-02-18T19:13:42;3.60;;;3.50;;
19560;SDS011;9927;47.792;10.616;2023-02-18T19:16:16;3.25;;;3.10;;
19560;SDS011;9927;47.792;10.616;2023-02-18T19:18:48;3.38;;;3.28;;
19560;SDS011;9927;47.792;10.616;2023-02-18T19:21:15;3.60;;;3.50;;
19560;SDS011;9927;47.792;10.616;2023-02-18T19:23:43;3.63;;;3.38;;
19560;SDS011;9927;47.792;10.616;2023-02-18T19:26:10;3.60;;;3.50;;
19560;SDS011;9927;47.792;10.616;2023-02-18T19:28:40;3.70;;;3.50;;
19560;SDS011;9927;47.792;10.616;2023-02-18T19:31:08;4.03;;;3.63;;
19560;SDS011;9927;47.792;10.616;2023-02-18T19:33:37;3.42;;;3.22;;
19560;SDS011;9927;47.792;10.616;2023-02-18T19:36:08;3.95;;;3.75;;
19560;SDS011;9927;47.792;10.616;2023-02-18T19:38:36;4.20;;;3.92;;
19560;SDS011;9927;47.792;10.616;2023-02-18T19:41:07;3.85;;;3.60;;
19560;SDS011;9927;47.792;10.616;2023-02-18T19:43:38;3.50;;;3.40;;
19560;SDS011;9927;47.792;10.616;2023-02-18T19:46:07;3.95;;;3.65;;
19560;SDS011;9927;47.792;10.616;2023-02-18T19:48:35;3.75;;;3.55;;
19560;SDS011;9927;47.792;10.616;2023-02-18T19:51:03;3.67;;;3.47;;
19560;SDS011;9927;47.792;10.616;2023-02-18T19:53:31;3.80;;;3.60;;
19560;SDS011;9927;47.792;10.616;2023-02-18T19:55:59;4.00;;;3.80;;
19560;SDS011;9927;47.792;10.616;2023-02-18T19:58:28;3.83;;;3.67;;
19560;SDS011;9927;47.792;10.616;2023-02-18T20:00:55;3.50;;;3.40;;
19560;SDS011;9927;47.792;10.616;2023-02-18T20:03:22;4.15;;;3.88;;
19560;SDS011;9927;47.792;10.616;2023-02-18T20:05:49;3.70;;;3.60;;
19560;SDS011;9927;47.792;10.616;2023-02-18T20:08:17;4.13;;;3.90;;
19560;SDS011;9927;47.792;10.616;2023-02-18T20:10:44;3.63;;;3.33;;
19560;SDS011;9927;47.792;10.616;2023-02-18T20:13:11;3.40;;;3.20;;
19560;SDS011;9927;47.792;10.616;2023-02-18T20:15:39;3.83;;;3.63;;
19560;SDS011;9927;47.792;10.616;2023-02-18T20:18:07;3.42;;;3.22;;
19560;SDS011;9927;47.792;10.616;2023-02-18T20:20:34;4.22;;;3.78;;
19560;SDS011;9927;47.792;10.616;2023-02-18T20:23:01;3.97;;;3.78;;
19560;SDS011;9927;47.792;10.616;2023-02-18T20:25:28;4.10;;;3.78;;
19560;SDS011;9927;47.792;10.616;2023-02-18T20:27:56;4.07;;;3.88;;
19560;SDS011;9927;47.792;10.616;2023-02-18T20:30:27;3.70;;;3.50;;
19560;SDS011;9927;47.792;10.616;2023-02-18T20:32:55;4.65;;;4.35;;
19560;SDS011;9927;47.792;10.616;2023-02-18T20:35:22;4.22;;;4.00;;
19560;SDS011;9927;47.792;10.616;2023-02-18T20:37:50;4.10;;;3.90;;
19560;SDS011;9927;47.792;10.616;2023-02-18T20:40:17;3.88;;;3.63;;
19560;SDS011;9927;47.792;10.616;2023-02-18T20:42:44;3.70;;;3.60;;
19560;SDS011;9927;47.792;10.616;2023-02-18T20:45:11;4.43;;;4.13;;
19560;SDS011;9927;47.792;10.616;2023-02-18T20:47:38;3.67;;;3.50;;
19560;SDS011;9927;47.792;10.616;2023-02-18T20:50:06;4.07;;;3.87;;
19560;SDS011;9927;47.792;10.616;2023-02-18T20:52:33;4.15;;;3.95;;
19560;SDS011;9927;47.792;10.616;2023-02-18T20:55:00;3.72;;;3.53;;
19560;SDS011;9927;47.792;10.616;2023-02-18T20:57:28;3.95;;;3.80;;
19560;SDS011;9927;47.792;10.616;2023-02-18T20:59:55;4.28;;;3.97;;
19560;SDS011;9927;47.792;10.616;2023-02-18T21:02:24;4.45;;;4.10;;
19560;SDS011;9927;47.792;10.616;2023-02-18T21:04:51;3.90;;;3.60;;
19560;SDS011;9927;47.792;10.616;2023-02-18T21:07:18;3.80;;;3.58;;
19560;SDS011;9927;47.792;10.616;2023-02-18T21:09:45;4.60;;;4.30;;
19560;SDS011;9927;47.792;10.616;2023-02-18T21:12:12;4.38;;;4.13;;
19560;SDS011;9927;47.792;10.616;2023-02-18T21:14:40;4.13;;;3.92;;
19560;SDS011;9927;47.792;10.616;2023-02-18T21:17:07;4.30;;;4.00;;
19560;SDS011;9927;47.792;10.616;2023-02-18T21:19:35;4.30;;;4.00;;
19560;SDS011;9927;47.792;10.616;2023-02-18T21:22:02;4.70;;;4.40;;
19560;SDS011;9927;47.792;10.616;2023-02-18T21:24:29;4.25;;;3.95;;
19560;SDS011;9927;47.792;10.616;2023-02-18T21:26:57;3.97;;;3.78;;
19560;SDS011;9927;47.792;10.616;2023-02-18T21:29:24;4.38;;;3.97;;